Accueil
METAR-TAF:

METAR-TAF

Aéroports :

Aéroport de Reus

Reus, Espagne

latitude: 41-09N, longitude: 001-10E, altitude: 71 m

Observation

Le bulletin a été fait il y a 24 minutes, à 22:30 UTC
Vent 1 kt de nord/nord-est
Température 20°C
Humidité 83%
Pression 1019 hPa
Visibilité 10 km ou plus

METAR: LERS 202230Z AUTO 02001KT 9999 NCD 20/17 Q1019

Heure: 00:54 (22:54 UTC)

Prévision

Le bulletin a été fait il y a 2 heures et 54 minutes, à 20:00 UTC
Prévision valable du 20 à 21 UTC au 21 à 21 UTC
Vent 3 kt de direction variable
Visibilité 10 km ou plus
Quelques nuages à une hauteur de 3000 ft
Evoluant progressivement
du 21 à 08 UTC au 21 à 10 UTC
Vent 7 kt de sud

TAF: LERS 202000Z 2021/2121 VRB03KT 9999 FEW030 TX32/2112Z TN21/2105Z BECMG 2108/2110 19007KT

Observations et prévisions météorologiques de plus de 4000 aéroports (messages METAR et TAF).

Les stations disponibles sont représentées par des disques jaunes et rouges sur la carte.

Passer la souris dessus pour voir le nom de la station.

Cliquer dessus pour voir les observations et prévisions météorologiques.

Pour changer de carte: cliquez sur les boutons verts avec une croix noire pour zoomer, sur le bouton vert avec un tiret pour effectuer un zoom arrière, ou sur les flèches vertes pour les cartes adjacentes.


METAR-TAF: